sensor_id;sensor_type;location;lat;lon;timestamp;P1;durP1;ratioP1;P2;durP2;ratioP2
5890;SDS011;2971;52.420;7.080;2024-01-30T00:00:49;18.97;;;16.90;;
5890;SDS011;2971;52.420;7.080;2024-01-30T00:03:15;20.97;;;17.73;;
5890;SDS011;2971;52.420;7.080;2024-01-30T00:05:42;19.83;;;17.40;;
5890;SDS011;2971;52.420;7.080;2024-01-30T00:08:08;19.60;;;16.73;;
5890;SDS011;2971;52.420;7.080;2024-01-30T00:10:33;19.87;;;17.30;;
5890;SDS011;2971;52.420;7.080;2024-01-30T00:12:59;20.80;;;17.33;;
5890;SDS011;2971;52.420;7.080;2024-01-30T00:15:24;18.50;;;16.60;;
5890;SDS011;2971;52.420;7.080;2024-01-30T00:17:50;19.40;;;17.03;;
5890;SDS011;2971;52.420;7.080;2024-01-30T00:20:17;21.27;;;16.40;;
5890;SDS011;2971;52.420;7.080;2024-01-30T00:22:44;20.47;;;17.27;;
5890;SDS011;2971;52.420;7.080;2024-01-30T00:25:10;18.43;;;16.53;;
5890;SDS011;2971;52.420;7.080;2024-01-30T00:27:35;20.57;;;17.17;;
5890;SDS011;2971;52.420;7.080;2024-01-30T00:30:01;18.20;;;16.33;;
5890;SDS011;2971;52.420;7.080;2024-01-30T00:32:26;19.60;;;16.57;;
5890;SDS011;2971;52.420;7.080;2024-01-30T00:34:52;18.53;;;16.53;;
5890;SDS011;2971;52.420;7.080;2024-01-30T00:37:17;18.97;;;16.80;;
5890;SDS011;2971;52.420;7.080;2024-01-30T00:39:45;19.17;;;16.77;;
5890;SDS011;2971;52.420;7.080;2024-01-30T00:42:10;20.47;;;17.47;;
5890;SDS011;2971;52.420;7.080;2024-01-30T00:44:36;20.00;;;17.00;;
5890;SDS011;2971;52.420;7.080;2024-01-30T00:47:04;18.50;;;16.63;;
5890;SDS011;2971;52.420;7.080;2024-01-30T00:49:30;18.33;;;16.43;;
5890;SDS011;2971;52.420;7.080;2024-01-30T00:51:56;18.57;;;16.20;;
5890;SDS011;2971;52.420;7.080;2024-01-30T00:54:21;18.30;;;16.47;;
5890;SDS011;2971;52.420;7.080;2024-01-30T00:56:48;20.87;;;16.57;;
5890;SDS011;2971;52.420;7.080;2024-01-30T00:59:14;18.07;;;16.07;;
5890;SDS011;2971;52.420;7.080;2024-01-30T01:01:39;22.33;;;17.23;;
5890;SDS011;2971;52.420;7.080;2024-01-30T01:04:05;18.97;;;16.80;;
5890;SDS011;2971;52.420;7.080;2024-01-30T01:06:30;18.60;;;16.60;;
5890;SDS011;2971;52.420;7.080;2024-01-30T01:08:56;18.17;;;16.37;;
5890;SDS011;2971;52.420;7.080;2024-01-30T01:11:22;18.60;;;16.53;;
5890;SDS011;2971;52.420;7.080;2024-01-30T01:13:48;18.80;;;16.90;;
5890;SDS011;2971;52.420;7.080;2024-01-30T01:16:14;17.80;;;16.00;;
5890;SDS011;2971;52.420;7.080;2024-01-30T01:18:40;17.93;;;16.03;;
5890;SDS011;2971;52.420;7.080;2024-01-30T01:21:05;19.87;;;16.97;;
5890;SDS011;2971;52.420;7.080;2024-01-30T01:23:31;18.33;;;16.43;;
5890;SDS011;2971;52.420;7.080;2024-01-30T01:25:56;17.60;;;15.47;;
5890;SDS011;2971;52.420;7.080;2024-01-30T01:28:24;17.43;;;15.67;;
5890;SDS011;2971;52.420;7.080;2024-01-30T01:30:51;18.13;;;16.23;;
5890;SDS011;2971;52.420;7.080;2024-01-30T01:33:17;18.27;;;16.37;;
5890;SDS011;2971;52.420;7.080;2024-01-30T01:35:42;20.43;;;16.63;;
5890;SDS011;2971;52.420;7.080;2024-01-30T01:38:08;18.93;;;16.17;;
5890;SDS011;2971;52.420;7.080;2024-01-30T01:40:34;19.67;;;16.87;;
5890;SDS011;2971;52.420;7.080;2024-01-30T01:43:02;18.57;;;15.97;;
5890;SDS011;2971;52.420;7.080;2024-01-30T01:45:28;20.63;;;16.70;;
5890;SDS011;2971;52.420;7.080;2024-01-30T01:47:55;19.00;;;17.07;;
5890;SDS011;2971;52.420;7.080;2024-01-30T01:50:21;18.20;;;16.30;;
5890;SDS011;2971;52.420;7.080;2024-01-30T01:52:47;20.70;;;16.87;;
5890;SDS011;2971;52.420;7.080;2024-01-30T01:55:13;18.27;;;16.47;;
5890;SDS011;2971;52.420;7.080;2024-01-30T01:57:40;18.37;;;16.47;;
5890;SDS011;2971;52.420;7.080;2024-01-30T02:00:06;18.97;;;17.03;;
5890;SDS011;2971;52.420;7.080;2024-01-30T02:02:35;18.33;;;16.43;;
5890;SDS011;2971;52.420;7.080;2024-01-30T02:05:03;18.13;;;16.23;;
5890;SDS011;2971;52.420;7.080;2024-01-30T02:07:29;18.43;;;16.53;;
5890;SDS011;2971;52.420;7.080;2024-01-30T02:09:54;20.10;;;16.33;;
5890;SDS011;2971;52.420;7.080;2024-01-30T02:12:20;19.17;;;17.10;;
5890;SDS011;2971;52.420;7.080;2024-01-30T02:14:46;18.67;;;16.40;;
5890;SDS011;2971;52.420;7.080;2024-01-30T02:17:11;18.87;;;16.80;;
5890;SDS011;2971;52.420;7.080;2024-01-30T02:19:37;19.47;;;17.37;;
5890;SDS011;2971;52.420;7.080;2024-01-30T02:22:04;19.77;;;17.67;;
5890;SDS011;2971;52.420;7.080;2024-01-30T02:24:30;18.83;;;16.67;;
5890;SDS011;2971;52.420;7.080;2024-01-30T02:26:55;19.23;;;16.73;;
5890;SDS011;2971;52.420;7.080;2024-01-30T02:29:21;17.97;;;16.03;;
5890;SDS011;2971;52.420;7.080;2024-01-30T02:31:46;18.90;;;16.57;;
5890;SDS011;2971;52.420;7.080;2024-01-30T02:34:12;20.93;;;16.93;;
5890;SDS011;2971;52.420;7.080;2024-01-30T02:36:38;18.83;;;16.57;;
5890;SDS011;2971;52.420;7.080;2024-01-30T02:39:05;18.00;;;16.20;;
5890;SDS011;2971;52.420;7.080;2024-01-30T02:41:30;18.73;;;16.73;;
5890;SDS011;2971;52.420;7.080;2024-01-30T02:43:56;18.77;;;16.73;;
5890;SDS011;2971;52.420;7.080;2024-01-30T02:46:21;18.87;;;16.90;;
5890;SDS011;2971;52.420;7.080;2024-01-30T02:48:47;19.40;;;17.30;;
5890;SDS011;2971;52.420;7.080;2024-01-30T02:51:12;19.10;;;17.07;;
5890;SDS011;2971;52.420;7.080;2024-01-30T02:53:38;18.70;;;16.73;;
5890;SDS011;2971;52.420;7.080;2024-01-30T02:56:05;18.80;;;16.80;;
5890;SDS011;2971;52.420;7.080;2024-01-30T02:58:34;20.60;;;17.20;;
5890;SDS011;2971;52.420;7.080;2024-01-30T03:01:00;19.23;;;17.20;;
5890;SDS011;2971;52.420;7.080;2024-01-30T03:03:25;18.50;;;16.60;;
5890;SDS011;2971;52.420;7.080;2024-01-30T03:05:51;19.27;;;17.27;;
5890;SDS011;2971;52.420;7.080;2024-01-30T03:08:16;20.67;;;18.33;;
5890;SDS011;2971;52.420;7.080;2024-01-30T03:10:42;19.10;;;17.07;;
5890;SDS011;2971;52.420;7.080;2024-01-30T03:13:09;20.17;;;17.97;;
5890;SDS011;2971;52.420;7.080;2024-01-30T03:15:35;18.83;;;16.87;;
5890;SDS011;2971;52.420;7.080;2024-01-30T03:18:01;21.43;;;18.00;;
5890;SDS011;2971;52.420;7.080;2024-01-30T03:20:28;19.90;;;17.67;;
5890;SDS011;2971;52.420;7.080;2024-01-30T03:22:54;19.37;;;17.33;;
5890;SDS011;2971;52.420;7.080;2024-01-30T03:25:20;19.73;;;17.70;;
5890;SDS011;2971;52.420;7.080;2024-01-30T03:27:46;20.63;;;17.53;;
5890;SDS011;2971;52.420;7.080;2024-01-30T03:30:13;19.80;;;17.70;;
5890;SDS011;2971;52.420;7.080;2024-01-30T03:32:38;19.70;;;17.70;;
5890;SDS011;2971;52.420;7.080;2024-01-30T03:35:04;19.40;;;17.40;;
5890;SDS011;2971;52.420;7.080;2024-01-30T03:37:30;20.23;;;17.60;;
5890;SDS011;2971;52.420;7.080;2024-01-30T03:39:56;19.70;;;17.60;;
5890;SDS011;2971;52.420;7.080;2024-01-30T03:42:21;19.83;;;17.70;;
5890;SDS011;2971;52.420;7.080;2024-01-30T03:44:47;20.27;;;18.10;;
5890;SDS011;2971;52.420;7.080;2024-01-30T03:47:14;20.43;;;18.37;;
5890;SDS011;2971;52.420;7.080;2024-01-30T03:49:40;20.23;;;17.97;;
5890;SDS011;2971;52.420;7.080;2024-01-30T03:52:05;20.67;;;18.20;;
5890;SDS011;2971;52.420;7.080;2024-01-30T03:54:31;19.17;;;17.27;;
5890;SDS011;2971;52.420;7.080;2024-01-30T03:56:56;20.37;;;18.27;;
5890;SDS011;2971;52.420;7.080;2024-01-30T03:59:22;19.70;;;17.70;;
5890;SDS011;2971;52.420;7.080;2024-01-30T04:01:49;19.80;;;17.80;;
5890;SDS011;2971;52.420;7.080;2024-01-30T04:04:16;22.20;;;19.43;;
5890;SDS011;2971;52.420;7.080;2024-01-30T04:06:42;20.73;;;18.63;;
5890;SDS011;2971;52.420;7.080;2024-01-30T04:09:07;21.10;;;18.90;;
5890;SDS011;2971;52.420;7.080;2024-01-30T04:11:33;22.23;;;19.57;;
5890;SDS011;2971;52.420;7.080;2024-01-30T04:13:58;22.37;;;19.77;;
5890;SDS011;2971;52.420;7.080;2024-01-30T04:16:24;26.37;;;20.77;;
5890;SDS011;2971;52.420;7.080;2024-01-30T04:18:50;22.67;;;19.77;;
5890;SDS011;2971;52.420;7.080;2024-01-30T04:21:17;22.03;;;19.10;;
5890;SDS011;2971;52.420;7.080;2024-01-30T04:23:43;20.07;;;17.97;;
5890;SDS011;2971;52.420;7.080;2024-01-30T04:26:09;22.07;;;19.70;;
5890;SDS011;2971;52.420;7.080;2024-01-30T04:28:34;23.20;;;20.23;;
5890;SDS011;2971;52.420;7.080;2024-01-30T04:31:00;22.60;;;20.20;;
5890;SDS011;2971;52.420;7.080;2024-01-30T04:33:25;23.73;;;20.63;;
5890;SDS011;2971;52.420;7.080;2024-01-30T04:35:51;23.57;;;20.30;;
5890;SDS011;2971;52.420;7.080;2024-01-30T04:38:18;22.70;;;20.23;;
5890;SDS011;2971;52.420;7.080;2024-01-30T04:40:44;22.60;;;20.13;;
5890;SDS011;2971;52.420;7.080;2024-01-30T04:43:09;22.87;;;19.03;;
5890;SDS011;2971;52.420;7.080;2024-01-30T04:45:35;23.53;;;19.87;;
5890;SDS011;2971;52.420;7.080;2024-01-30T04:48:00;21.97;;;19.37;;
5890;SDS011;2971;52.420;7.080;2024-01-30T04:50:26;24.33;;;20.30;;
5890;SDS011;2971;52.420;7.080;2024-01-30T04:52:52;22.23;;;19.53;;
5890;SDS011;2971;52.420;7.080;2024-01-30T04:55:18;22.60;;;20.17;;
5890;SDS011;2971;52.420;7.080;2024-01-30T04:57:44;22.73;;;20.33;;
5890;SDS011;2971;52.420;7.080;2024-01-30T05:00:10;23.13;;;19.47;;
5890;SDS011;2971;52.420;7.080;2024-01-30T05:02:36;23.97;;;20.17;;
5890;SDS011;2971;52.420;7.080;2024-01-30T05:05:01;25.73;;;20.93;;
5890;SDS011;2971;52.420;7.080;2024-01-30T05:07:28;23.20;;;20.63;;
5890;SDS011;2971;52.420;7.080;2024-01-30T05:09:53;24.47;;;21.17;;
5890;SDS011;2971;52.420;7.080;2024-01-30T05:12:20;24.03;;;21.43;;
5890;SDS011;2971;52.420;7.080;2024-01-30T05:14:46;24.70;;;20.30;;
5890;SDS011;2971;52.420;7.080;2024-01-30T05:17:12;24.90;;;20.53;;
5890;SDS011;2971;52.420;7.080;2024-01-30T05:19:39;22.97;;;20.47;;
5890;SDS011;2971;52.420;7.080;2024-01-30T05:22:04;23.83;;;20.23;;
5890;SDS011;2971;52.420;7.080;2024-01-30T05:24:30;22.17;;;19.87;;
5890;SDS011;2971;52.420;7.080;2024-01-30T05:26:55;25.80;;;20.57;;
5890;SDS011;2971;52.420;7.080;2024-01-30T05:29:22;23.27;;;20.20;;
5890;SDS011;2971;52.420;7.080;2024-01-30T05:31:48;22.10;;;19.70;;
5890;SDS011;2971;52.420;7.080;2024-01-30T05:34:14;22.67;;;19.83;;
5890;SDS011;2971;52.420;7.080;2024-01-30T05:36:39;21.27;;;19.00;;
5890;SDS011;2971;52.420;7.080;2024-01-30T05:39:05;21.80;;;19.13;;
5890;SDS011;2971;52.420;7.080;2024-01-30T05:41:31;21.10;;;18.90;;
5890;SDS011;2971;52.420;7.080;2024-01-30T05:43:56;20.33;;;18.30;;
5890;SDS011;2971;52.420;7.080;2024-01-30T05:46:23;21.83;;;19.57;;
5890;SDS011;2971;52.420;7.080;2024-01-30T05:48:49;20.37;;;18.27;;
5890;SDS011;2971;52.420;7.080;2024-01-30T05:51:14;20.70;;;18.63;;
5890;SDS011;2971;52.420;7.080;2024-01-30T05:53:40;20.53;;;18.43;;
5890;SDS011;2971;52.420;7.080;2024-01-30T05:56:06;19.60;;;17.37;;
5890;SDS011;2971;52.420;7.080;2024-01-30T05:58:32;20.13;;;18.03;;
5890;SDS011;2971;52.420;7.080;2024-01-30T06:00:57;20.77;;;18.60;;
5890;SDS011;2971;52.420;7.080;2024-01-30T06:03:24;20.97;;;18.40;;
5890;SDS011;2971;52.420;7.080;2024-01-30T06:05:50;19.77;;;17.63;;
5890;SDS011;2971;52.420;7.080;2024-01-30T06:08:15;20.33;;;18.20;;
5890;SDS011;2971;52.420;7.080;2024-01-30T06:10:41;21.00;;;18.80;;
5890;SDS011;2971;52.420;7.080;2024-01-30T06:13:06;19.80;;;17.47;;
5890;SDS011;2971;52.420;7.080;2024-01-30T06:15:32;20.63;;;18.43;;
5890;SDS011;2971;52.420;7.080;2024-01-30T06:17:58;21.00;;;17.83;;
5890;SDS011;2971;52.420;7.080;2024-01-30T06:20:25;25.20;;;18.30;;
5890;SDS011;2971;52.420;7.080;2024-01-30T06:22:50;19.90;;;17.77;;
5890;SDS011;2971;52.420;7.080;2024-01-30T06:25:16;19.37;;;17.43;;
5890;SDS011;2971;52.420;7.080;2024-01-30T06:27:41;20.17;;;17.73;;
5890;SDS011;2971;52.420;7.080;2024-01-30T06:30:07;19.40;;;16.77;;
5890;SDS011;2971;52.420;7.080;2024-01-30T06:32:33;19.73;;;17.60;;
5890;SDS011;2971;52.420;7.080;2024-01-30T06:35:00;21.30;;;17.60;;
5890;SDS011;2971;52.420;7.080;2024-01-30T06:37:27;20.43;;;17.50;;
5890;SDS011;2971;52.420;7.080;2024-01-30T06:39:53;18.87;;;16.87;;
5890;SDS011;2971;52.420;7.080;2024-01-30T06:42:18;18.17;;;16.27;;
5890;SDS011;2971;52.420;7.080;2024-01-30T06:44:44;19.20;;;16.50;;
5890;SDS011;2971;52.420;7.080;2024-01-30T06:47:10;18.37;;;16.30;;
5890;SDS011;2971;52.420;7.080;2024-01-30T06:49:35;17.07;;;15.23;;
5890;SDS011;2971;52.420;7.080;2024-01-30T06:52:04;17.97;;;15.80;;
5890;SDS011;2971;52.420;7.080;2024-01-30T06:54:31;19.57;;;15.30;;
5890;SDS011;2971;52.420;7.080;2024-01-30T06:56:57;16.37;;;14.73;;
5890;SDS011;2971;52.420;7.080;2024-01-30T06:59:23;17.20;;;15.03;;
5890;SDS011;2971;52.420;7.080;2024-01-30T07:01:49;17.40;;;15.63;;
5890;SDS011;2971;52.420;7.080;2024-01-30T07:04:14;18.80;;;15.97;;
5890;SDS011;2971;52.420;7.080;2024-01-30T07:06:41;16.17;;;14.47;;
5890;SDS011;2971;52.420;7.080;2024-01-30T07:09:06;16.40;;;14.80;;
5890;SDS011;2971;52.420;7.080;2024-01-30T07:11:33;18.13;;;15.17;;
5890;SDS011;2971;52.420;7.080;2024-01-30T07:13:59;15.77;;;14.03;;
5890;SDS011;2971;52.420;7.080;2024-01-30T07:16:24;20.83;;;15.30;;
5890;SDS011;2971;52.420;7.080;2024-01-30T07:18:50;17.50;;;14.80;;
5890;SDS011;2971;52.420;7.080;2024-01-30T07:21:16;16.53;;;14.80;;
5890;SDS011;2971;52.420;7.080;2024-01-30T07:23:42;17.27;;;14.20;;
5890;SDS011;2971;52.420;7.080;2024-01-30T07:26:08;17.00;;;15.20;;
5890;SDS011;2971;52.420;7.080;2024-01-30T07:28:35;22.00;;;14.87;;
5890;SDS011;2971;52.420;7.080;2024-01-30T07:31:00;20.43;;;14.37;;
5890;SDS011;2971;52.420;7.080;2024-01-30T07:33:26;18.87;;;14.03;;
5890;SDS011;2971;52.420;7.080;2024-01-30T07:35:52;17.77;;;15.00;;
5890;SDS011;2971;52.420;7.080;2024-01-30T07:38:18;15.77;;;13.47;;
5890;SDS011;2971;52.420;7.080;2024-01-30T07:40:43;15.00;;;13.33;;
5890;SDS011;2971;52.420;7.080;2024-01-30T07:43:09;15.10;;;13.20;;
5890;SDS011;2971;52.420;7.080;2024-01-30T07:45:36;19.73;;;14.07;;
5890;SDS011;2971;52.420;7.080;2024-01-30T07:48:03;18.63;;;13.87;;
5890;SDS011;2971;52.420;7.080;2024-01-30T07:50:29;18.37;;;13.43;;
5890;SDS011;2971;52.420;7.080;2024-01-30T07:52:55;17.60;;;13.80;;
5890;SDS011;2971;52.420;7.080;2024-01-30T07:55:21;15.90;;;13.70;;
5890;SDS011;2971;52.420;7.080;2024-01-30T07:57:49;16.00;;;13.60;;
5890;SDS011;2971;52.420;7.080;2024-01-30T08:00:17;13.90;;;12.50;;
5890;SDS011;2971;52.420;7.080;2024-01-30T08:02:45;14.77;;;13.23;;
5890;SDS011;2971;52.420;7.080;2024-01-30T08:05:10;14.43;;;12.93;;
5890;SDS011;2971;52.420;7.080;2024-01-30T08:07:36;16.50;;;12.77;;
5890;SDS011;2971;52.420;7.080;2024-01-30T08:10:02;14.40;;;12.57;;
5890;SDS011;2971;52.420;7.080;2024-01-30T08:12:27;14.70;;;12.60;;
5890;SDS011;2971;52.420;7.080;2024-01-30T08:14:53;16.53;;;13.10;;
5890;SDS011;2971;52.420;7.080;2024-01-30T08:17:19;15.80;;;12.43;;
5890;SDS011;2971;52.420;7.080;2024-01-30T08:19:45;15.17;;;13.00;;
5890;SDS011;2971;52.420;7.080;2024-01-30T08:22:11;15.33;;;13.73;;
5890;SDS011;2971;52.420;7.080;2024-01-30T08:24:37;13.87;;;12.47;;
5890;SDS011;2971;52.420;7.080;2024-01-30T08:27:03;13.63;;;12.23;;
5890;SDS011;2971;52.420;7.080;2024-01-30T08:29:30;14.40;;;12.73;;
5890;SDS011;2971;52.420;7.080;2024-01-30T08:31:55;14.07;;;12.47;;
5890;SDS011;2971;52.420;7.080;2024-01-30T08:34:21;16.97;;;12.83;;
5890;SDS011;2971;52.420;7.080;2024-01-30T08:36:48;14.70;;;12.50;;
5890;SDS011;2971;52.420;7.080;2024-01-30T08:39:13;13.30;;;11.90;;
5890;SDS011;2971;52.420;7.080;2024-01-30T08:41:39;15.77;;;12.47;;
5890;SDS011;2971;52.420;7.080;2024-01-30T08:44:05;15.40;;;11.43;;
5890;SDS011;2971;52.420;7.080;2024-01-30T08:46:30;14.80;;;12.90;;
5890;SDS011;2971;52.420;7.080;2024-01-30T08:48:56;14.97;;;12.10;;
5890;SDS011;2971;52.420;7.080;2024-01-30T08:51:22;13.50;;;12.07;;
5890;SDS011;2971;52.420;7.080;2024-01-30T08:53:48;14.77;;;11.97;;
5890;SDS011;2971;52.420;7.080;2024-01-30T08:56:14;14.10;;;12.13;;
5890;SDS011;2971;52.420;7.080;2024-01-30T08:58:41;13.70;;;11.70;;
5890;SDS011;2971;52.420;7.080;2024-01-30T09:01:07;12.80;;;11.40;;
5890;SDS011;2971;52.420;7.080;2024-01-30T09:03:32;13.70;;;11.73;;
5890;SDS011;2971;52.420;7.080;2024-01-30T09:05:58;13.53;;;11.60;;
5890;SDS011;2971;52.420;7.080;2024-01-30T09:08:23;15.20;;;11.67;;
5890;SDS011;2971;52.420;7.080;2024-01-30T09:10:50;15.57;;;12.03;;
5890;SDS011;2971;52.420;7.080;2024-01-30T09:13:16;14.23;;;10.87;;
5890;SDS011;2971;52.420;7.080;2024-01-30T09:15:41;12.30;;;11.00;;
5890;SDS011;2971;52.420;7.080;2024-01-30T09:18:07;14.60;;;11.80;;
5890;SDS011;2971;52.420;7.080;2024-01-30T09:20:33;13.77;;;11.03;;
5890;SDS011;2971;52.420;7.080;2024-01-30T09:22:58;11.40;;;10.20;;
5890;SDS011;2971;52.420;7.080;2024-01-30T09:25:24;13.67;;;10.63;;
5890;SDS011;2971;52.420;7.080;2024-01-30T09:27:51;11.47;;;9.90;;
5890;SDS011;2971;52.420;7.080;2024-01-30T09:30:17;12.23;;;9.37;;
5890;SDS011;2971;52.420;7.080;2024-01-30T09:32:42;11.07;;;9.87;;
5890;SDS011;2971;52.420;7.080;2024-01-30T09:35:08;12.87;;;9.70;;
5890;SDS011;2971;52.420;7.080;2024-01-30T09:37:34;12.10;;;10.00;;
5890;SDS011;2971;52.420;7.080;2024-01-30T09:40:00;10.33;;;9.23;;
5890;SDS011;2971;52.420;7.080;2024-01-30T09:42:26;12.47;;;10.47;;
5890;SDS011;2971;52.420;7.080;2024-01-30T09:44:55;10.80;;;9.60;;
5890;SDS011;2971;52.420;7.080;2024-01-30T09:47:21;14.13;;;10.30;;
5890;SDS011;2971;52.420;7.080;2024-01-30T09:49:47;11.80;;;10.13;;
5890;SDS011;2971;52.420;7.080;2024-01-30T09:52:13;11.33;;;9.83;;
5890;SDS011;2971;52.420;7.080;2024-01-30T09:54:38;13.03;;;10.13;;
5890;SDS011;2971;52.420;7.080;2024-01-30T09:57:05;11.77;;;10.57;;
5890;SDS011;2971;52.420;7.080;2024-01-30T09:59:32;15.70;;;10.73;;
5890;SDS011;2971;52.420;7.080;2024-01-30T10:01:59;11.43;;;9.73;;
5890;SDS011;2971;52.420;7.080;2024-01-30T10:04:25;12.67;;;10.63;;
5890;SDS011;2971;52.420;7.080;2024-01-30T10:06:51;11.60;;;9.73;;
5890;SDS011;2971;52.420;7.080;2024-01-30T10:09:16;11.73;;;10.20;;
5890;SDS011;2971;52.420;7.080;2024-01-30T10:11:42;11.53;;;9.80;;
5890;SDS011;2971;52.420;7.080;2024-01-30T10:14:07;14.80;;;10.03;;
5890;SDS011;2971;52.420;7.080;2024-01-30T10:16:34;14.33;;;10.73;;
5890;SDS011;2971;52.420;7.080;2024-01-30T10:19:01;12.90;;;10.20;;
5890;SDS011;2971;52.420;7.080;2024-01-30T10:21:28;13.37;;;10.33;;
5890;SDS011;2971;52.420;7.080;2024-01-30T10:23:54;12.07;;;10.17;;
5890;SDS011;2971;52.420;7.080;2024-01-30T10:26:20;13.43;;;9.97;;
5890;SDS011;2971;52.420;7.080;2024-01-30T10:28:46;14.10;;;10.13;;
5890;SDS011;2971;52.420;7.080;2024-01-30T10:31:16;13.27;;;10.00;;
5890;SDS011;2971;52.420;7.080;2024-01-30T10:33:41;13.27;;;10.07;;
5890;SDS011;2971;52.420;7.080;2024-01-30T10:36:09;12.97;;;10.17;;
5890;SDS011;2971;52.420;7.080;2024-01-30T10:38:38;13.70;;;10.37;;
5890;SDS011;2971;52.420;7.080;2024-01-30T10:41:07;15.33;;;10.67;;
5890;SDS011;2971;52.420;7.080;2024-01-30T10:43:35;13.60;;;10.57;;
5890;SDS011;2971;52.420;7.080;2024-01-30T10:46:03;12.80;;;10.73;;
5890;SDS011;2971;52.420;7.080;2024-01-30T10:48:31;12.93;;;11.20;;
5890;SDS011;2971;52.420;7.080;2024-01-30T10:50:57;14.57;;;10.80;;
5890;SDS011;2971;52.420;7.080;2024-01-30T10:53:26;16.13;;;10.80;;
5890;SDS011;2971;52.420;7.080;2024-01-30T10:55:52;15.47;;;10.30;;
5890;SDS011;2971;52.420;7.080;2024-01-30T10:58:19;14.47;;;10.47;;
5890;SDS011;2971;52.420;7.080;2024-01-30T11:00:45;13.63;;;10.53;;
5890;SDS011;2971;52.420;7.080;2024-01-30T11:03:11;14.93;;;10.87;;
5890;SDS011;2971;52.420;7.080;2024-01-30T11:05:40;13.13;;;10.60;;
5890;SDS011;2971;52.420;7.080;2024-01-30T11:08:10;14.10;;;11.23;;
5890;SDS011;2971;52.420;7.080;2024-01-30T11:10:45;13.87;;;10.27;;
5890;SDS011;2971;52.420;7.080;2024-01-30T11:13:12;12.90;;;10.40;;
5890;SDS011;2971;52.420;7.080;2024-01-30T11:15:38;13.60;;;11.00;;
5890;SDS011;2971;52.420;7.080;2024-01-30T11:18:05;14.20;;;10.63;;
5890;SDS011;2971;52.420;7.080;2024-01-30T11:20:31;13.77;;;10.63;;
5890;SDS011;2971;52.420;7.080;2024-01-30T11:22:57;13.83;;;10.57;;
5890;SDS011;2971;52.420;7.080;2024-01-30T11:25:24;11.37;;;10.17;;
5890;SDS011;2971;52.420;7.080;2024-01-30T11:27:52;13.37;;;10.33;;
5890;SDS011;2971;52.420;7.080;2024-01-30T11:30:22;16.63;;;10.63;;
5890;SDS011;2971;52.420;7.080;2024-01-30T11:32:57;15.70;;;10.40;;
5890;SDS011;2971;52.420;7.080;2024-01-30T11:35:24;11.97;;;10.70;;
5890;SDS011;2971;52.420;7.080;2024-01-30T11:37:49;15.10;;;10.30;;
5890;SDS011;2971;52.420;7.080;2024-01-30T11:40:15;14.73;;;11.30;;
5890;SDS011;2971;52.420;7.080;2024-01-30T11:42:41;13.93;;;10.90;;
5890;SDS011;2971;52.420;7.080;2024-01-30T11:45:09;14.00;;;10.27;;
5890;SDS011;2971;52.420;7.080;2024-01-30T11:47:36;12.53;;;10.47;;
5890;SDS011;2971;52.420;7.080;2024-01-30T11:50:02;12.33;;;10.20;;
5890;SDS011;2971;52.420;7.080;2024-01-30T11:52:29;13.90;;;9.87;;
5890;SDS011;2971;52.420;7.080;2024-01-30T11:54:54;12.20;;;10.03;;
5890;SDS011;2971;52.420;7.080;2024-01-30T11:57:20;14.27;;;10.17;;
5890;SDS011;2971;52.420;7.080;2024-01-30T11:59:45;12.30;;;9.97;;
5890;SDS011;2971;52.420;7.080;2024-01-30T12:02:16;15.00;;;11.07;;
5890;SDS011;2971;52.420;7.080;2024-01-30T12:04:44;14.17;;;10.10;;
5890;SDS011;2971;52.420;7.080;2024-01-30T12:07:10;12.67;;;10.23;;
5890;SDS011;2971;52.420;7.080;2024-01-30T12:09:36;11.10;;;9.50;;
5890;SDS011;2971;52.420;7.080;2024-01-30T12:12:02;14.03;;;10.57;;
5890;SDS011;2971;52.420;7.080;2024-01-30T12:14:27;12.00;;;9.57;;
5890;SDS011;2971;52.420;7.080;2024-01-30T12:16:53;11.97;;;9.90;;
5890;SDS011;2971;52.420;7.080;2024-01-30T12:19:23;10.47;;;9.37;;
5890;SDS011;2971;52.420;7.080;2024-01-30T12:21:53;13.10;;;9.70;;
5890;SDS011;2971;52.420;7.080;2024-01-30T12:24:19;12.20;;;10.50;;
5890;SDS011;2971;52.420;7.080;2024-01-30T12:26:45;13.00;;;9.57;;
5890;SDS011;2971;52.420;7.080;2024-01-30T12:29:10;13.40;;;10.10;;
5890;SDS011;2971;52.420;7.080;2024-01-30T12:31:36;11.27;;;10.03;;
5890;SDS011;2971;52.420;7.080;2024-01-30T12:34:01;14.37;;;9.70;;
5890;SDS011;2971;52.420;7.080;2024-01-30T12:36:29;13.37;;;9.57;;
5890;SDS011;2971;52.420;7.080;2024-01-30T12:38:56;12.83;;;10.17;;
5890;SDS011;2971;52.420;7.080;2024-01-30T12:41:22;12.53;;;10.30;;
5890;SDS011;2971;52.420;7.080;2024-01-30T12:43:53;12.97;;;10.17;;
5890;SDS011;2971;52.420;7.080;2024-01-30T12:46:19;13.17;;;10.87;;
5890;SDS011;2971;52.420;7.080;2024-01-30T12:48:44;15.17;;;10.57;;
5890;SDS011;2971;52.420;7.080;2024-01-30T12:51:10;13.50;;;10.13;;
5890;SDS011;2971;52.420;7.080;2024-01-30T12:53:37;13.63;;;10.67;;
5890;SDS011;2971;52.420;7.080;2024-01-30T12:56:03;12.47;;;10.10;;
5890;SDS011;2971;52.420;7.080;2024-01-30T12:58:28;11.27;;;9.90;;
5890;SDS011;2971;52.420;7.080;2024-01-30T13:00:54;15.70;;;11.17;;
5890;SDS011;2971;52.420;7.080;2024-01-30T13:03:20;11.23;;;10.13;;
5890;SDS011;2971;52.420;7.080;2024-01-30T13:05:45;13.67;;;10.67;;
5890;SDS011;2971;52.420;7.080;2024-01-30T13:08:11;12.63;;;10.70;;
5890;SDS011;2971;52.420;7.080;2024-01-30T13:10:38;13.90;;;10.60;;
5890;SDS011;2971;52.420;7.080;2024-01-30T13:13:03;12.97;;;10.47;;
5890;SDS011;2971;52.420;7.080;2024-01-30T13:15:29;14.87;;;11.00;;
5890;SDS011;2971;52.420;7.080;2024-01-30T13:17:54;11.93;;;10.67;;
5890;SDS011;2971;52.420;7.080;2024-01-30T13:20:20;15.07;;;11.60;;
5890;SDS011;2971;52.420;7.080;2024-01-30T13:22:47;15.43;;;11.00;;
5890;SDS011;2971;52.420;7.080;2024-01-30T13:25:12;13.40;;;11.10;;
5890;SDS011;2971;52.420;7.080;2024-01-30T13:27:39;13.13;;;10.90;;
5890;SDS011;2971;52.420;7.080;2024-01-30T13:30:06;13.37;;;11.10;;
5890;SDS011;2971;52.420;7.080;2024-01-30T13:32:34;13.80;;;11.33;;
5890;SDS011;2971;52.420;7.080;2024-01-30T13:35:00;11.77;;;10.43;;
5890;SDS011;2971;52.420;7.080;2024-01-30T13:37:25;12.03;;;10.40;;
5890;SDS011;2971;52.420;7.080;2024-01-30T13:39:51;13.93;;;10.30;;
5890;SDS011;2971;52.420;7.080;2024-01-30T13:42:16;13.63;;;10.10;;
5890;SDS011;2971;52.420;7.080;2024-01-30T13:44:43;15.10;;;11.23;;
5890;SDS011;2971;52.420;7.080;2024-01-30T13:47:09;14.60;;;9.80;;
5890;SDS011;2971;52.420;7.080;2024-01-30T13:49:34;11.57;;;9.57;;
5890;SDS011;2971;52.420;7.080;2024-01-30T13:52:00;14.90;;;9.23;;
5890;SDS011;2971;52.420;7.080;2024-01-30T13:54:26;13.40;;;9.07;;
5890;SDS011;2971;52.420;7.080;2024-01-30T13:56:51;12.00;;;9.27;;
5890;SDS011;2971;52.420;7.080;2024-01-30T13:59:17;10.80;;;9.13;;
5890;SDS011;2971;52.420;7.080;2024-01-30T14:01:50;12.47;;;9.03;;
5890;SDS011;2971;52.420;7.080;2024-01-30T14:04:15;10.33;;;8.67;;
5890;SDS011;2971;52.420;7.080;2024-01-30T14:06:41;12.27;;;8.87;;
5890;SDS011;2971;52.420;7.080;2024-01-30T14:09:07;10.67;;;8.70;;
5890;SDS011;2971;52.420;7.080;2024-01-30T14:11:32;9.17;;;7.47;;
5890;SDS011;2971;52.420;7.080;2024-01-30T14:13:58;14.40;;;8.07;;
5890;SDS011;2971;52.420;7.080;2024-01-30T14:16:24;11.07;;;7.57;;
5890;SDS011;2971;52.420;7.080;2024-01-30T14:18:50;11.33;;;7.47;;
5890;SDS011;2971;52.420;7.080;2024-01-30T14:21:16;10.57;;;6.83;;
5890;SDS011;2971;52.420;7.080;2024-01-30T14:23:42;9.87;;;6.83;;
5890;SDS011;2971;52.420;7.080;2024-01-30T14:26:07;11.27;;;6.10;;
5890;SDS011;2971;52.420;7.080;2024-01-30T14:28:33;9.60;;;6.00;;
5890;SDS011;2971;52.420;7.080;2024-01-30T14:30:58;9.03;;;5.70;;
5890;SDS011;2971;52.420;7.080;2024-01-30T14:33:24;7.50;;;5.00;;
5890;SDS011;2971;52.420;7.080;2024-01-30T14:35:52;9.13;;;4.67;;
5890;SDS011;2971;52.420;7.080;2024-01-30T14:38:18;7.43;;;4.50;;
5890;SDS011;2971;52.420;7.080;2024-01-30T14:40:44;6.27;;;3.93;;
5890;SDS011;2971;52.420;7.080;2024-01-30T14:43:09;5.23;;;3.50;;